createdAt,value
2022-10-12T07:20:15.276Z,38.37
2022-10-12T07:22:42.256Z,35.37
2022-10-12T07:25:09.330Z,41.87
2022-10-12T07:27:36.545Z,36.37
2022-10-12T07:30:04.199Z,38.10
2022-10-12T07:32:31.041Z,40.57
2022-10-12T07:34:58.260Z,39.83
2022-10-12T07:37:25.329Z,37.33
2022-10-12T07:39:57.301Z,33.53
2022-10-12T07:42:25.514Z,35.33
2022-10-12T07:44:52.745Z,35.10
2022-10-12T07:47:19.995Z,40.50
2022-10-12T07:49:47.104Z,35.80
2022-10-12T07:52:14.150Z,30.43
2022-10-12T07:54:41.341Z,31.00
2022-10-12T07:57:08.733Z,30.43
2022-10-12T07:59:35.748Z,36.20
2022-10-12T08:02:02.735Z,33.10
2022-10-12T08:04:29.698Z,32.07
2022-10-12T08:06:58.130Z,36.27
2022-10-12T08:09:25.056Z,32.33
2022-10-12T08:11:52.037Z,33.70
2022-10-12T08:14:19.115Z,32.63
2022-10-12T08:16:46.240Z,29.70
2022-10-12T08:19:13.746Z,28.85
2022-10-12T08:21:42.608Z,30.65
2022-10-12T08:24:10.944Z,24.20
2022-10-12T08:26:38.084Z,27.40
2022-10-12T08:29:06.470Z,29.73
2022-10-12T08:31:33.370Z,25.08
2022-10-12T08:34:02.511Z,28.57
2022-10-12T08:36:29.470Z,25.77
2022-10-12T08:38:56.512Z,23.23
2022-10-12T08:41:54.375Z,22.50
2022-10-12T08:44:45.368Z,16.97
2022-10-12T08:47:19.666Z,17.13
2022-10-12T08:49:50.135Z,17.63
2022-10-12T08:52:35.061Z,20.60
2022-10-12T08:55:16.725Z,18.10
2022-10-12T08:57:47.666Z,17.27
2022-10-12T09:00:18.094Z,20.23
2022-10-12T09:02:48.214Z,15.65
2022-10-12T09:05:29.201Z,15.57
2022-10-12T09:08:07.153Z,18.25
2022-10-12T09:10:53.393Z,15.38
2022-10-12T09:13:26.546Z,20.88
2022-10-12T09:16:05.119Z,18.52
2022-10-12T09:18:32.041Z,16.45
2022-10-12T09:20:59.447Z,17.92
2022-10-12T09:23:29.892Z,14.48
2022-10-12T09:26:21.216Z,15.45
2022-10-12T09:28:56.282Z,12.23
2022-10-12T09:32:01.345Z,12.75
2022-10-12T09:34:28.343Z,13.32
2022-10-12T09:36:55.787Z,12.77
2022-10-12T09:39:30.128Z,16.70
2022-10-12T09:41:57.232Z,15.48
2022-10-12T09:44:40.669Z,13.23
2022-10-12T09:47:29.749Z,14.30
2022-10-12T09:50:02.301Z,20.45
2022-10-12T09:52:42.866Z,11.30
2022-10-12T09:55:16.055Z,11.60
2022-10-12T09:57:51.922Z,16.63
2022-10-12T10:00:31.752Z,12.02
2022-10-12T10:02:59.220Z,15.43
2022-10-12T10:05:27.921Z,16.40
2022-10-12T10:08:14.575Z,13.20
2022-10-12T10:10:53.207Z,13.35
2022-10-12T10:13:22.064Z,11.40
2022-10-12T10:15:52.322Z,11.32
2022-10-12T10:18:50.022Z,14.00
2022-10-12T10:21:25.337Z,13.15
2022-10-12T10:23:56.797Z,11.88
2022-10-12T10:26:25.679Z,10.60
2022-10-12T10:29:15.861Z,11.80
2022-10-12T10:31:46.125Z,10.90
2022-10-12T10:34:18.797Z,13.20
2022-10-12T10:36:50.251Z,11.27
2022-10-12T10:39:30.094Z,10.50
2022-10-12T10:42:10.209Z,9.98
2022-10-12T10:44:37.743Z,10.95
2022-10-12T10:47:11.421Z,11.98
2022-10-12T10:49:41.539Z,11.55
2022-10-12T10:52:34.128Z,11.45
2022-10-12T10:55:19.258Z,8.63
2022-10-12T10:57:59.851Z,13.73
2022-10-12T11:00:45.443Z,12.23
2022-10-12T11:06:00.322Z,11.45
2022-10-12T11:08:30.227Z,8.77
2022-10-12T11:11:02.475Z,10.15
2022-10-12T11:13:38.636Z,8.68
2022-10-12T11:16:29.587Z,11.60
2022-10-12T11:19:05.549Z,10.80
2022-10-12T11:21:51.125Z,14.25
2022-10-12T11:24:24.276Z,10.80
2022-10-12T11:27:09.432Z,9.07
2022-10-12T11:29:37.681Z,13.70
2022-10-12T11:32:27.271Z,11.10
2022-10-12T11:34:58.247Z,11.43
2022-10-12T11:37:40.002Z,10.93
2022-10-12T11:40:27.029Z,11.65
2022-10-12T11:43:08.354Z,11.60
2022-10-12T11:45:41.647Z,10.63
2022-10-12T11:48:18.151Z,11.45
2022-10-12T11:50:49.711Z,12.23
2022-10-12T11:53:43.964Z,12.52
2022-10-12T11:56:28.617Z,11.05
2022-10-12T11:59:02.338Z,13.90
2022-10-12T12:01:54.889Z,15.43
2022-10-12T12:04:42.529Z,15.52
2022-10-12T12:11:36.885Z,11.32
2022-10-12T12:14:27.133Z,10.38
2022-10-12T12:17:11.863Z,9.02
2022-10-12T12:19:41.316Z,13.20
2022-10-12T12:22:31.734Z,7.85
2022-10-12T12:25:12.813Z,9.90
2022-10-12T12:27:48.544Z,10.43
2022-10-12T12:30:18.481Z,14.70
2022-10-12T12:32:53.717Z,15.65
2022-10-12T12:36:01.579Z,14.93
2022-10-12T12:38:32.954Z,12.77
2022-10-12T12:41:01.976Z,15.95
2022-10-12T12:43:29.060Z,15.32
2022-10-12T12:46:01.720Z,12.25
2022-10-12T12:48:43.932Z,9.82
2022-10-12T12:51:24.395Z,14.02
2022-10-12T12:54:01.401Z,11.48
2022-10-12T12:56:37.187Z,25.27
2022-10-12T12:59:25.112Z,13.40
2022-10-12T13:02:16.529Z,11.93
2022-10-12T13:05:01.240Z,8.60
2022-10-12T13:07:47.608Z,14.20
2022-10-12T13:10:47.232Z,7.57
2022-10-12T13:13:38.756Z,7.63
2022-10-12T13:17:29.990Z,11.88
2022-10-12T13:19:22.482Z,8.00
2022-10-12T13:21:52.816Z,8.68
2022-10-12T13:24:24.657Z,7.00
2022-10-12T13:27:03.064Z,13.50
2022-10-12T13:29:56.656Z,7.78
2022-10-12T13:32:44.697Z,14.15
2022-10-12T13:35:45.814Z,8.15
2022-10-12T13:38:20.408Z,14.32
2022-10-12T13:40:58.752Z,9.52
2022-10-12T13:43:35.016Z,11.07
2022-10-12T13:46:02.958Z,7.65
2022-10-12T13:48:59.444Z,9.98
2022-10-12T13:51:24.866Z,8.90
2022-10-12T13:53:55.477Z,10.10
2022-10-12T13:56:34.043Z,10.23
2022-10-12T13:59:05.482Z,8.43
2022-10-12T14:01:55.355Z,8.63
2022-10-12T14:04:23.485Z,6.43
2022-10-12T14:06:59.208Z,7.30
2022-10-12T14:09:37.053Z,10.65
2022-10-12T14:12:04.735Z,8.80
2022-10-12T14:14:35.148Z,5.72
2022-10-12T14:17:02.993Z,8.15
2022-10-12T14:19:46.933Z,9.25
2022-10-12T14:22:46.145Z,10.05
2022-10-12T14:25:32.438Z,10.05
2022-10-12T14:28:02.465Z,9.70
2022-10-12T14:30:35.319Z,8.63
2022-10-12T14:33:18.018Z,9.48
2022-10-12T14:35:49.743Z,8.07
2022-10-12T14:38:38.595Z,9.90
2022-10-12T14:41:38.774Z,13.27
2022-10-12T14:44:16.252Z,10.32
2022-10-12T14:46:47.506Z,11.23
2022-10-12T14:49:19.258Z,10.75
2022-10-12T14:51:47.362Z,10.25
2022-10-12T14:54:14.374Z,7.35
2022-10-12T14:56:42.423Z,8.15
2022-10-12T14:59:11.721Z,9.40
2022-10-12T15:01:43.511Z,18.45
2022-10-12T15:04:15.403Z,11.23
2022-10-12T15:06:44.068Z,10.75
2022-10-12T15:09:16.711Z,11.30
2022-10-12T15:11:43.546Z,11.05
2022-10-12T15:14:11.778Z,10.30
2022-10-12T15:16:39.354Z,9.75
2022-10-12T15:19:06.509Z,7.68
2022-10-12T15:21:34.636Z,9.25
2022-10-12T15:24:04.294Z,8.65
2022-10-12T15:26:31.486Z,8.15
2022-10-12T15:28:58.489Z,8.63
2022-10-12T15:31:25.427Z,9.88
2022-10-12T15:33:52.402Z,12.43
2022-10-12T15:36:23.837Z,10.30
2022-10-12T15:38:51.457Z,10.50
2022-10-12T15:41:27.349Z,11.68
2022-10-12T15:43:54.390Z,10.25
2022-10-12T15:46:23.415Z,9.57
2022-10-12T15:48:50.780Z,13.60
2022-10-12T15:51:51.052Z,10.85
2022-10-12T15:54:21.377Z,10.85
2022-10-12T15:56:48.505Z,10.05
2022-10-12T15:59:15.552Z,6.75
2022-10-12T16:01:43.427Z,8.82
2022-10-12T16:04:14.996Z,10.43
2022-10-12T16:06:42.201Z,12.95
2022-10-12T16:09:12.150Z,9.32
2022-10-12T16:11:39.197Z,8.75
2022-10-12T16:14:06.640Z,7.63
2022-10-12T16:16:34.412Z,12.32
2022-10-12T16:19:02.091Z,9.77
2022-10-12T16:21:29.374Z,12.57
2022-10-12T16:23:59.394Z,10.15
2022-10-12T16:26:28.338Z,12.65
2022-10-12T16:28:55.310Z,12.38
2022-10-12T16:31:22.207Z,9.00
2022-10-12T16:33:49.101Z,11.07
2022-10-12T16:36:16.979Z,12.38
2022-10-12T16:38:44.535Z,11.20
2022-10-12T16:41:16.748Z,8.55
2022-10-12T16:43:44.308Z,13.88
2022-10-12T16:46:12.037Z,12.88
2022-10-12T16:48:39.184Z,12.48
2022-10-12T16:51:10.578Z,11.40
2022-10-12T16:53:37.654Z,11.23
2022-10-12T16:56:05.361Z,11.73
2022-10-12T16:58:33.131Z,10.85
2022-10-12T17:01:09.434Z,9.25
2022-10-12T17:03:36.487Z,10.18
2022-10-12T17:06:03.823Z,11.68
2022-10-12T17:08:35.648Z,10.15
2022-10-12T17:11:10.326Z,10.77
2022-10-12T17:13:38.919Z,9.80
2022-10-12T17:16:41.235Z,9.80
2022-10-12T17:19:11.089Z,10.73
2022-10-12T17:21:42.087Z,12.88
2022-10-12T17:24:10.891Z,10.77
2022-10-12T17:26:40.943Z,12.88
2022-10-12T17:29:10.006Z,11.15
2022-10-12T17:31:37.073Z,8.75
2022-10-12T17:34:04.466Z,10.85
2022-10-12T17:36:36.348Z,10.65
2022-10-12T17:39:03.504Z,12.00
2022-10-12T17:41:30.550Z,13.45
2022-10-12T17:43:58.253Z,10.07
2022-10-12T17:46:25.225Z,10.50
2022-10-12T17:48:53.353Z,12.32
2022-10-12T17:51:20.264Z,9.43
2022-10-12T17:53:47.505Z,10.20
2022-10-12T17:56:15.421Z,9.88
2022-10-12T17:58:42.605Z,14.52
2022-10-12T18:01:16.802Z,15.23
2022-10-12T18:03:46.342Z,10.43
2022-10-12T18:06:18.083Z,12.55
2022-10-12T18:08:45.033Z,10.43
2022-10-12T18:11:12.603Z,12.25
2022-10-12T18:13:39.603Z,10.93
2022-10-12T18:16:11.354Z,14.23
2022-10-12T18:18:40.744Z,14.35
2022-10-12T18:21:11.447Z,13.30
2022-10-12T18:23:45.916Z,16.67
2022-10-12T18:26:16.252Z,13.68
2022-10-12T18:28:43.191Z,16.05
2022-10-12T18:31:21.028Z,15.80
2022-10-12T18:33:48.372Z,11.05
2022-10-12T18:36:19.083Z,9.40
2022-10-12T18:38:46.561Z,13.35
2022-10-12T18:41:17.941Z,12.15
2022-10-12T18:43:45.164Z,16.35
2022-10-12T18:46:14.408Z,14.38
2022-10-12T18:48:41.536Z,19.63
2022-10-12T18:51:20.698Z,14.68
2022-10-12T18:53:48.523Z,9.40
2022-10-12T18:56:15.912Z,12.85
2022-10-12T18:58:44.740Z,12.68
2022-10-12T19:01:17.964Z,15.13
2022-10-12T19:03:45.941Z,15.57
2022-10-12T19:06:16.044Z,13.65
2022-10-12T19:08:44.063Z,14.57
2022-10-12T19:11:12.966Z,13.88
2022-10-12T19:13:41.959Z,14.23
2022-10-12T19:16:15.231Z,16.23
2022-10-12T19:18:42.362Z,14.57
2022-10-12T19:21:14.034Z,19.35
2022-10-12T19:23:42.679Z,12.70
2022-10-12T19:26:12.677Z,14.77
2022-10-12T19:28:39.906Z,16.13
2022-10-12T19:31:33.209Z,13.18
2022-10-12T19:34:06.736Z,14.18
2022-10-12T19:36:35.073Z,11.85
2022-10-12T19:39:05.486Z,14.40
2022-10-12T19:41:32.514Z,15.38
2022-10-12T19:44:01.302Z,14.40
2022-10-12T19:46:29.164Z,16.63
2022-10-12T19:48:58.044Z,14.23
2022-10-12T19:51:26.755Z,17.48
2022-10-12T19:53:55.632Z,13.63
2022-10-12T19:56:23.858Z,16.15
2022-10-12T19:58:54.434Z,16.35
2022-10-12T20:01:24.917Z,20.05
2022-10-12T20:03:52.329Z,14.32
2022-10-12T20:06:26.311Z,17.08
2022-10-12T20:08:54.997Z,19.30
2022-10-12T20:11:24.758Z,19.58
2022-10-12T20:13:56.097Z,15.52
2022-10-12T20:16:26.007Z,15.38
2022-10-12T20:18:54.360Z,19.88
2022-10-12T20:21:23.508Z,16.13
2022-10-12T20:23:51.947Z,14.27
2022-10-12T20:26:23.158Z,19.23
2022-10-12T20:28:51.125Z,15.63
2022-10-12T20:31:21.472Z,17.52
2022-10-12T20:33:53.638Z,14.43
2022-10-12T20:36:24.403Z,17.08
2022-10-12T20:38:55.031Z,12.95
2022-10-12T20:41:23.397Z,14.73
2022-10-12T20:43:55.466Z,15.88
2022-10-12T20:46:22.413Z,17.70
2022-10-12T20:48:49.467Z,15.10
2022-10-12T20:51:20.689Z,13.70
2022-10-12T20:53:47.804Z,16.92
2022-10-12T20:56:14.734Z,13.25
2022-10-12T20:58:41.857Z,18.58
2022-10-12T21:01:12.783Z,13.70
2022-10-12T21:03:42.456Z,20.67
2022-10-12T21:06:13.297Z,22.88
2022-10-12T21:08:41.023Z,20.20
2022-10-12T21:11:09.890Z,17.17
2022-10-12T21:13:41.875Z,20.08
2022-10-12T21:16:09.946Z,23.52
2022-10-12T21:18:39.364Z,25.67
2022-10-12T21:21:19.132Z,27.75
2022-10-12T21:23:56.150Z,27.02
2022-10-12T21:26:30.535Z,33.20
2022-10-12T21:28:59.572Z,37.88
2022-10-12T21:31:32.340Z,32.15
2022-10-12T21:34:01.696Z,35.13
2022-10-12T21:36:32.057Z,36.60
2022-10-12T21:38:59.053Z,35.53
